createdAt,value
2022-10-15T00:00:13.092Z,970.33
2022-10-15T00:00:43.935Z,970.44
2022-10-15T00:01:15.791Z,970.44
2022-10-15T00:01:47.827Z,970.33
2022-10-15T00:02:04.392Z,970.33
2022-10-15T00:02:35.816Z,970.33
2022-10-15T00:03:20.206Z,970.33
2022-10-15T00:03:51.978Z,970.44
2022-10-15T00:04:23.715Z,970.44
2022-10-15T00:04:55.737Z,970.23
2022-10-15T00:05:27.977Z,970.44
2022-10-15T00:05:59.625Z,970.44
2022-10-15T00:06:31.531Z,970.23
2022-10-15T00:06:47.812Z,970.23
2022-10-15T00:07:31.704Z,970.33
2022-10-15T00:08:04.153Z,970.33
2022-10-15T00:08:35.500Z,970.33
2022-10-15T00:09:07.459Z,970.33
2022-10-15T00:09:39.775Z,970.44
2022-10-15T00:10:11.840Z,970.44
2022-10-15T00:10:43.386Z,970.33
2022-10-15T00:11:15.490Z,970.33
2022-10-15T00:11:47.690Z,970.33
2022-10-15T00:12:19.622Z,970.33
2022-10-15T00:12:51.597Z,970.33
2022-10-15T00:13:28.443Z,970.33
2022-10-15T00:13:55.416Z,970.33
2022-10-15T00:14:27.420Z,970.33
2022-10-15T00:14:59.411Z,970.33
2022-10-15T00:15:31.637Z,970.23
2022-10-15T00:16:03.970Z,970.23
2022-10-15T00:16:35.455Z,970.54
2022-10-15T00:17:07.192Z,970.54
2022-10-15T00:17:39.541Z,970.33
2022-10-15T00:18:11.489Z,970.33
2022-10-15T00:18:43.283Z,970.44
2022-10-15T00:19:15.085Z,970.44
2022-10-15T00:19:47.108Z,970.33
2022-10-15T00:20:19.395Z,970.33
2022-10-15T00:20:51.559Z,970.33
2022-10-15T00:21:22.899Z,970.33
2022-10-15T00:21:55.228Z,970.33
2022-10-15T00:22:26.987Z,970.33
2022-10-15T00:22:59.184Z,970.33
2022-10-15T00:23:31.032Z,970.33
2022-10-15T00:23:47.053Z,970.33
2022-10-15T00:24:31.118Z,970.13
2022-10-15T00:25:03.960Z,970.13
2022-10-15T00:25:34.996Z,970.23
2022-10-15T00:26:06.854Z,970.23
2022-10-15T00:26:39.026Z,970.44
2022-10-15T00:27:11.027Z,970.44
2022-10-15T00:27:42.915Z,970.23
2022-10-15T00:28:14.818Z,970.23
2022-10-15T00:28:46.735Z,970.33
2022-10-15T00:29:19.074Z,970.33
2022-10-15T00:29:51.078Z,970.13
2022-10-15T00:30:22.852Z,970.13
2022-10-15T00:30:54.679Z,970.03
2022-10-15T00:31:26.711Z,970.23
2022-10-15T00:31:58.917Z,970.23
2022-10-15T00:32:30.782Z,970.23
2022-10-15T00:32:46.655Z,970.23
2022-10-15T00:33:18.846Z,970.23
2022-10-15T00:33:34.590Z,970.13
2022-10-15T00:34:06.648Z,970.13
2022-10-15T00:34:38.567Z,970.23
2022-10-15T00:35:10.791Z,970.23
2022-10-15T00:35:42.606Z,970.23
2022-10-15T00:36:14.528Z,970.23
2022-10-15T00:36:46.441Z,970.23
2022-10-15T00:37:03.318Z,970.23
2022-10-15T00:37:34.562Z,970.23
2022-10-15T00:38:18.576Z,970.23
2022-10-15T00:38:50.720Z,970.44
2022-10-15T00:39:22.382Z,970.44
2022-10-15T00:39:54.404Z,970.23
2022-10-15T00:40:26.666Z,970.33
2022-10-15T00:40:58.422Z,970.33
2022-10-15T00:41:30.154Z,970.33
2022-10-15T00:41:46.350Z,970.33
2022-10-15T00:42:30.585Z,970.13
2022-10-15T00:43:02.867Z,970.13
2022-10-15T00:43:34.259Z,970.54
2022-10-15T00:44:06.209Z,970.54
2022-10-15T00:44:38.077Z,970.44
2022-10-15T00:45:11.779Z,970.44
2022-10-15T00:45:42.302Z,970.23
2022-10-15T00:46:13.885Z,970.23
2022-10-15T00:46:46.174Z,970.54
2022-10-15T00:47:02.907Z,970.54
2022-10-15T00:47:46.082Z,970.33
2022-10-15T00:48:18.256Z,970.33
2022-10-15T00:48:50.165Z,970.23
2022-10-15T00:49:22.127Z,970.23
2022-10-15T00:49:53.936Z,970.33
2022-10-15T00:50:26.243Z,970.23
2022-10-15T00:50:57.719Z,970.23
2022-10-15T00:51:29.787Z,970.13
2022-10-15T00:52:02.212Z,970.13
2022-10-15T00:52:33.780Z,970.03
2022-10-15T00:53:05.758Z,970.03
2022-10-15T00:53:37.646Z,970.33
2022-10-15T00:54:09.850Z,970.33
2022-10-15T00:54:41.880Z,970.13
2022-10-15T00:55:13.720Z,970.13
2022-10-15T00:55:45.643Z,970.33
2022-10-15T00:56:17.869Z,970.33
2022-10-15T00:56:49.832Z,970.44
2022-10-15T00:57:21.575Z,970.44
2022-10-15T00:57:53.380Z,970.03
2022-10-15T00:58:25.494Z,970.03
2022-10-15T00:58:57.623Z,970.13
2022-10-15T00:59:29.598Z,970.33
2022-10-15T00:59:45.592Z,970.33
2022-10-15T01:00:30.095Z,970.23
2022-10-15T01:01:02.021Z,970.23
2022-10-15T01:01:33.660Z,970.23
2022-10-15T01:02:05.339Z,970.23
2022-10-15T01:02:37.382Z,970.13
2022-10-15T01:03:09.622Z,970.13
2022-10-15T01:03:41.469Z,970.23
2022-10-15T01:04:13.304Z,970.23
2022-10-15T01:04:45.360Z,970.03
2022-10-15T01:05:17.536Z,970.03
2022-10-15T01:05:49.271Z,970.23
2022-10-15T01:06:21.329Z,970.23
2022-10-15T01:06:53.174Z,970.33
2022-10-15T01:07:25.243Z,970.33
2022-10-15T01:07:57.052Z,970.13
2022-10-15T01:08:28.982Z,970.13
2022-10-15T01:08:45.266Z,970.13
2022-10-15T01:09:16.881Z,970.13
2022-10-15T01:09:33.063Z,970.03
2022-10-15T01:10:05.432Z,970.03
2022-10-15T01:10:36.995Z,970.03
2022-10-15T01:11:09.140Z,970.03
2022-10-15T01:11:41.080Z,970.13
2022-10-15T01:12:12.791Z,970.13
2022-10-15T01:12:44.871Z,969.93
2022-10-15T01:13:01.213Z,969.93
2022-10-15T01:13:32.699Z,970.03
2022-10-15T01:14:16.828Z,970.03
2022-10-15T01:14:48.837Z,970.03
2022-10-15T01:15:34.373Z,970.03
2022-10-15T01:15:52.748Z,969.93
2022-10-15T01:16:24.876Z,969.93
2022-10-15T01:16:56.562Z,969.93
2022-10-15T01:17:28.683Z,969.93
2022-10-15T01:17:45.039Z,969.93
2022-10-15T01:18:28.888Z,970.03
2022-10-15T01:19:00.992Z,970.03
2022-10-15T01:19:32.496Z,970.03
2022-10-15T01:20:05.281Z,970.03
2022-10-15T01:20:36.708Z,970.03
2022-10-15T01:21:08.662Z,970.03
2022-10-15T01:21:40.692Z,969.93
2022-10-15T01:22:12.465Z,969.93
2022-10-15T01:22:44.633Z,969.93
2022-10-15T01:23:16.520Z,969.93
2022-10-15T01:23:48.409Z,969.93
2022-10-15T01:24:22.428Z,969.93
2022-10-15T01:24:53.258Z,969.72
2022-10-15T01:25:29.832Z,969.72
2022-10-15T01:25:56.306Z,969.93
2022-10-15T01:26:28.379Z,970.03
2022-10-15T01:26:44.433Z,970.03
2022-10-15T01:27:16.262Z,970.03
2022-10-15T01:27:32.397Z,970.03
2022-10-15T01:28:04.670Z,970.03
2022-10-15T01:28:36.285Z,969.93
2022-10-15T01:29:08.238Z,969.93
2022-10-15T01:29:40.314Z,969.83
2022-10-15T01:30:13.125Z,969.83
2022-10-15T01:30:44.139Z,969.83
2022-10-15T01:31:00.258Z,969.83
2022-10-15T01:31:32.077Z,969.83
2022-10-15T01:32:16.256Z,969.83
2022-10-15T01:32:47.940Z,969.93
2022-10-15T01:33:20.217Z,969.93
2022-10-15T01:33:52.148Z,970.03
2022-10-15T01:34:24.123Z,970.03
2022-10-15T01:34:56.018Z,970.03
2022-10-15T01:35:28.273Z,969.93
2022-10-15T01:35:44.098Z,969.93
2022-10-15T01:36:33.056Z,969.83
2022-10-15T01:36:59.935Z,969.83
2022-10-15T01:37:31.961Z,969.62
2022-10-15T01:38:04.397Z,969.62
2022-10-15T01:38:20.240Z,969.62
2022-10-15T01:38:51.871Z,969.83
2022-10-15T01:39:35.921Z,970.13
2022-10-15T01:40:08.028Z,970.13
2022-10-15T01:40:39.971Z,969.83
2022-10-15T01:41:11.777Z,969.83
2022-10-15T01:41:43.908Z,969.62
2022-10-15T01:42:15.655Z,969.62
2022-10-15T01:42:31.995Z,969.83
2022-10-15T01:43:04.604Z,969.83
2022-10-15T01:43:47.549Z,969.72
2022-10-15T01:44:19.854Z,969.72
2022-10-15T01:44:51.782Z,969.83
2022-10-15T01:45:23.899Z,969.83
2022-10-15T01:45:55.630Z,969.83
2022-10-15T01:46:27.541Z,969.62
2022-10-15T01:46:59.413Z,969.62
2022-10-15T01:47:15.633Z,969.62
2022-10-15T01:47:59.588Z,969.83
2022-10-15T01:48:31.621Z,969.83
2022-10-15T01:49:04.185Z,969.83
2022-10-15T01:49:35.339Z,969.72
2022-10-15T01:50:07.572Z,969.72
2022-10-15T01:50:39.511Z,969.62
2022-10-15T01:51:11.413Z,969.62
2022-10-15T01:51:43.385Z,969.72
2022-10-15T01:51:59.526Z,969.72
2022-10-15T01:53:15.352Z,969.62
2022-10-15T01:53:47.138Z,969.62
2022-10-15T01:54:19.415Z,969.62
2022-10-15T01:54:51.417Z,969.93
2022-10-15T01:55:23.567Z,969.93
2022-10-15T01:55:55.125Z,969.72
2022-10-15T01:56:27.014Z,969.83
2022-10-15T01:56:43.359Z,969.83
2022-10-15T01:57:27.168Z,969.72
2022-10-15T01:57:59.320Z,969.72
2022-10-15T01:58:31.224Z,969.93
2022-10-15T01:59:04.168Z,969.93
2022-10-15T01:59:35.022Z,969.52
2022-10-15T02:00:08.510Z,969.52
2022-10-15T02:00:39.032Z,969.72
2022-10-15T02:01:11.175Z,969.72
2022-10-15T02:02:14.923Z,969.52
2022-10-15T02:02:46.840Z,969.62
2022-10-15T02:03:19.114Z,969.62
2022-10-15T02:03:50.795Z,969.52
2022-10-15T02:04:23.030Z,969.52
2022-10-15T02:04:54.713Z,969.72
2022-10-15T02:05:26.793Z,969.62
2022-10-15T02:05:42.977Z,969.62
2022-10-15T02:06:14.624Z,969.62
2022-10-15T02:06:30.825Z,969.83
2022-10-15T02:07:03.140Z,969.83
2022-10-15T02:07:34.776Z,969.83
2022-10-15T02:08:06.696Z,969.83
2022-10-15T02:08:38.693Z,969.93
2022-10-15T02:09:10.724Z,969.93
2022-10-15T02:09:42.650Z,969.42
2022-10-15T02:09:58.856Z,969.42
2022-10-15T02:10:30.893Z,969.62
2022-10-15T02:11:14.527Z,969.62
2022-10-15T02:11:46.347Z,969.72
2022-10-15T02:12:18.740Z,969.72
2022-10-15T02:12:50.709Z,969.62
2022-10-15T02:13:22.529Z,969.62
2022-10-15T02:13:54.414Z,969.83
2022-10-15T02:14:26.446Z,969.83
2022-10-15T02:14:42.506Z,969.83
2022-10-15T02:15:26.723Z,969.72
2022-10-15T02:15:58.507Z,969.72
2022-10-15T02:16:30.171Z,969.83
2022-10-15T02:17:02.959Z,969.83
2022-10-15T02:17:34.381Z,969.72
2022-10-15T02:18:06.268Z,969.72
2022-10-15T02:18:38.145Z,969.62
2022-10-15T02:19:10.200Z,969.62
2022-10-15T02:19:42.261Z,969.52
2022-10-15T02:20:14.429Z,969.52
2022-10-15T02:20:45.930Z,969.42
2022-10-15T02:21:17.965Z,969.42
2022-10-15T02:21:50.224Z,969.72
2022-10-15T02:22:22.233Z,969.72
2022-10-15T02:22:53.921Z,969.62
2022-10-15T02:23:26.104Z,969.52
2022-10-15T02:23:42.203Z,969.52
2022-10-15T02:24:14.002Z,969.52
2022-10-15T02:24:29.933Z,969.52
2022-10-15T02:25:02.551Z,969.52
2022-10-15T02:25:33.791Z,969.72
2022-10-15T02:26:05.816Z,969.72
2022-10-15T02:26:37.830Z,969.62
2022-10-15T02:27:10.006Z,969.62
2022-10-15T02:27:41.781Z,969.52
2022-10-15T02:27:58.058Z,969.52
2022-10-15T02:28:29.777Z,969.62
2022-10-15T02:29:13.895Z,969.62
2022-10-15T02:29:45.519Z,969.62
2022-10-15T02:30:18.010Z,969.62
2022-10-15T02:30:49.837Z,969.62
2022-10-15T02:31:21.724Z,969.62
2022-10-15T02:31:53.497Z,969.72
2022-10-15T02:32:25.831Z,969.72
2022-10-15T02:32:41.703Z,969.52
2022-10-15T02:33:25.617Z,969.52
2022-10-15T02:33:57.531Z,969.42
2022-10-15T02:34:29.436Z,969.72
2022-10-15T02:35:07.534Z,969.72
2022-10-15T02:35:33.408Z,969.72
2022-10-15T02:36:05.677Z,969.72
2022-10-15T02:36:37.580Z,969.72
2022-10-15T02:37:09.537Z,969.72
2022-10-15T02:37:41.584Z,969.72
2022-10-15T02:38:45.171Z,969.93
2022-10-15T02:39:17.334Z,969.93
2022-10-15T02:39:49.495Z,969.62
2022-10-15T02:40:21.631Z,969.62
2022-10-15T02:40:53.449Z,969.72
2022-10-15T02:41:25.241Z,969.72
2022-10-15T02:41:41.669Z,969.62
2022-10-15T02:42:13.122Z,969.62
2022-10-15T02:42:29.343Z,969.62
2022-10-15T02:43:01.646Z,969.62
2022-10-15T02:43:33.040Z,969.83
2022-10-15T02:44:05.678Z,969.83
2022-10-15T02:44:37.153Z,969.83
2022-10-15T02:45:10.540Z,969.83
2022-10-15T02:45:41.232Z,969.83
2022-10-15T02:45:57.409Z,969.83
2022-10-15T02:46:29.094Z,969.83
2022-10-15T02:47:13.157Z,969.83
2022-10-15T02:47:44.822Z,969.62
2022-10-15T02:48:16.916Z,969.62
2022-10-15T02:48:48.927Z,969.72
2022-10-15T02:49:20.869Z,969.72
2022-10-15T02:49:52.706Z,969.62
2022-10-15T02:50:25.074Z,969.62
2022-10-15T02:50:41.031Z,969.83
2022-10-15T02:51:24.893Z,969.83
2022-10-15T02:51:56.698Z,969.72
2022-10-15T02:52:28.841Z,969.72
2022-10-15T02:53:00.598Z,969.72
2022-10-15T02:53:16.836Z,969.72
2022-10-15T02:53:48.602Z,969.62
2022-10-15T02:54:32.771Z,969.93
2022-10-15T02:55:05.240Z,969.93
2022-10-15T02:55:36.559Z,969.93
2022-10-15T02:56:08.618Z,969.93
2022-10-15T02:56:40.765Z,969.93
2022-10-15T02:57:12.558Z,969.93
2022-10-15T02:57:28.755Z,969.83
2022-10-15T02:58:00.894Z,969.83
2022-10-15T02:58:44.571Z,969.72
2022-10-15T02:59:16.473Z,969.72
2022-10-15T02:59:48.432Z,969.83
2022-10-15T03:00:20.843Z,969.83
2022-10-15T03:00:52.548Z,969.83
2022-10-15T03:01:24.559Z,969.83
2022-10-15T03:01:56.429Z,970.03
2022-10-15T03:02:15.397Z,970.03
2022-10-15T03:02:56.466Z,969.93
2022-10-15T03:03:28.696Z,969.72
2022-10-15T03:04:00.414Z,969.72
2022-10-15T03:04:32.408Z,970.03
2022-10-15T03:05:05.022Z,970.03
2022-10-15T03:05:36.280Z,969.83
2022-10-15T03:06:08.524Z,969.83
2022-10-15T03:06:40.303Z,969.83
2022-10-15T03:06:56.396Z,969.83
2022-10-15T03:07:28.500Z,969.83
2022-10-15T03:08:12.261Z,969.83
2022-10-15T03:08:44.270Z,969.52
2022-10-15T03:09:15.941Z,969.52
2022-10-15T03:09:48.082Z,969.62
2022-10-15T03:10:25.361Z,969.62
2022-10-15T03:10:52.204Z,969.83
2022-10-15T03:11:24.008Z,969.83
2022-10-15T03:11:40.200Z,969.93
2022-10-15T03:12:24.048Z,969.93
2022-10-15T03:12:56.131Z,970.03
2022-10-15T03:13:28.010Z,969.83
2022-10-15T03:14:00.124Z,969.83
2022-10-15T03:14:37.005Z,970.03
2022-10-15T03:15:06.162Z,970.03
2022-10-15T03:15:36.026Z,970.03
2022-10-15T03:16:07.960Z,970.03
2022-10-15T03:16:39.983Z,969.83
2022-10-15T03:17:12.028Z,969.83
2022-10-15T03:17:43.942Z,969.72
2022-10-15T03:18:15.670Z,969.72
2022-10-15T03:18:47.670Z,969.83
2022-10-15T03:19:20.003Z,969.83
2022-10-15T03:19:51.744Z,969.93
2022-10-15T03:20:24.178Z,969.93
2022-10-15T03:20:55.592Z,969.93
2022-10-15T03:21:27.671Z,969.72
2022-10-15T03:21:59.663Z,969.72
2022-10-15T03:22:31.753Z,969.83
2022-10-15T03:23:04.284Z,969.83
2022-10-15T03:23:35.719Z,970.13
2022-10-15T03:24:07.744Z,970.13
2022-10-15T03:24:39.475Z,969.93
2022-10-15T03:24:55.589Z,969.93
2022-10-15T03:25:27.529Z,970.33
2022-10-15T03:26:11.519Z,970.33
2022-10-15T03:26:43.459Z,970.03
2022-10-15T03:27:15.160Z,970.03
2022-10-15T03:27:47.233Z,970.03
2022-10-15T03:28:19.478Z,970.03
2022-10-15T03:28:51.456Z,970.03
2022-10-15T03:29:23.092Z,970.03
2022-10-15T03:29:39.471Z,969.83
2022-10-15T03:30:23.536Z,969.83
2022-10-15T03:30:55.243Z,969.93
2022-10-15T03:31:27.152Z,969.93
2022-10-15T03:31:59.192Z,969.93
2022-10-15T03:32:33.115Z,970.03
2022-10-15T03:33:04.068Z,970.03
2022-10-15T03:33:35.165Z,969.72
2022-10-15T03:34:06.850Z,969.72
2022-10-15T03:34:39.145Z,970.03
2022-10-15T03:35:11.447Z,970.03
2022-10-15T03:35:43.030Z,969.93
2022-10-15T03:36:14.814Z,969.93
2022-10-15T03:36:46.846Z,969.93
2022-10-15T03:37:18.896Z,969.93
2022-10-15T03:37:51.144Z,970.03
2022-10-15T03:38:22.805Z,970.03
2022-10-15T03:38:39.100Z,969.83
2022-10-15T03:39:11.057Z,969.83
2022-10-15T03:39:26.856Z,969.93
2022-10-15T03:39:59.114Z,969.93
2022-10-15T03:40:30.916Z,970.23
2022-10-15T03:41:03.358Z,970.23
2022-10-15T03:41:34.793Z,970.13
2022-10-15T03:42:06.799Z,970.13
2022-10-15T03:42:38.780Z,969.93
2022-10-15T03:42:54.621Z,969.93
2022-10-15T03:43:26.565Z,970.23
2022-10-15T03:44:10.788Z,970.23
2022-10-15T03:44:42.536Z,970.03
2022-10-15T03:45:15.775Z,970.03
2022-10-15T03:45:46.438Z,970.03
2022-10-15T03:46:18.505Z,970.03
2022-10-15T03:46:50.780Z,970.03
2022-10-15T03:47:22.422Z,970.03
2022-10-15T03:47:38.736Z,970.03
2022-10-15T03:48:22.497Z,970.03
2022-10-15T03:48:54.471Z,970.03
2022-10-15T03:49:26.439Z,970.33
2022-10-15T03:49:58.377Z,970.33
2022-10-15T03:50:36.496Z,970.23
2022-10-15T03:51:02.902Z,970.23
2022-10-15T03:51:34.474Z,970.23
2022-10-15T03:52:06.223Z,970.23
2022-10-15T03:52:38.356Z,970.33
2022-10-15T03:53:10.479Z,970.33
2022-10-15T03:53:42.309Z,970.13
2022-10-15T03:54:14.105Z,970.13
2022-10-15T03:54:46.064Z,970.33
2022-10-15T03:55:18.516Z,970.33
2022-10-15T03:55:50.278Z,970.23
2022-10-15T03:56:22.097Z,970.23
2022-10-15T03:56:54.049Z,970.03
2022-10-15T03:57:31.312Z,970.33
2022-10-15T03:57:58.028Z,970.33
2022-10-15T03:58:29.977Z,970.23
2022-10-15T03:59:02.964Z,970.23
2022-10-15T03:59:33.975Z,970.23
2022-10-15T04:00:07.138Z,970.23
2022-10-15T04:00:37.932Z,970.13
2022-10-15T04:00:54.788Z,970.13
2022-10-15T04:01:25.825Z,970.13
2022-10-15T04:02:09.926Z,969.93
2022-10-15T04:02:42.044Z,970.23
2022-10-15T04:03:13.725Z,970.23
2022-10-15T04:03:45.735Z,970.23
2022-10-15T04:04:17.717Z,970.23
2022-10-15T04:04:49.743Z,970.23
2022-10-15T04:05:21.909Z,970.23
2022-10-15T04:05:38.038Z,970.33
2022-10-15T04:06:21.764Z,970.33
2022-10-15T04:06:53.708Z,970.03
2022-10-15T04:07:25.634Z,970.03
2022-10-15T04:07:57.539Z,970.23
2022-10-15T04:08:29.809Z,970.23
2022-10-15T04:09:02.075Z,970.23
2022-10-15T04:09:33.621Z,970.33
2022-10-15T04:10:05.752Z,970.33
2022-10-15T04:10:37.468Z,970.33
2022-10-15T04:11:09.761Z,970.33
2022-10-15T04:11:41.545Z,970.23
2022-10-15T04:12:13.424Z,970.23
2022-10-15T04:12:45.285Z,970.33
2022-10-15T04:13:17.447Z,970.33
2022-10-15T04:13:49.242Z,970.23
2022-10-15T04:14:21.457Z,970.23
2022-10-15T04:14:37.368Z,970.03
2022-10-15T04:15:11.075Z,970.03
2022-10-15T04:15:25.400Z,970.03
2022-10-15T04:15:57.344Z,970.03
2022-10-15T04:16:29.298Z,970.23
2022-10-15T04:17:01.259Z,970.23
2022-10-15T04:17:33.289Z,970.03
2022-10-15T04:18:05.199Z,970.03
2022-10-15T04:18:37.243Z,970.03
2022-10-15T04:19:11.216Z,970.03
2022-10-15T04:19:41.436Z,970.23
2022-10-15T04:20:13.269Z,970.23
2022-10-15T04:20:45.022Z,970.33
2022-10-15T04:21:17.029Z,970.33
2022-10-15T04:21:49.042Z,970.03
2022-10-15T04:22:21.513Z,970.03
2022-10-15T04:22:37.019Z,970.44
2022-10-15T04:23:21.219Z,970.44
2022-10-15T04:23:52.982Z,970.44
2022-10-15T04:24:25.018Z,970.44
2022-10-15T04:24:56.828Z,970.23
2022-10-15T04:25:29.250Z,970.33
2022-10-15T04:26:00.960Z,970.33
2022-10-15T04:26:32.934Z,970.23
2022-10-15T04:27:05.135Z,970.23
2022-10-15T04:27:36.659Z,970.33
2022-10-15T04:27:52.826Z,970.33
2022-10-15T04:28:41.958Z,970.23
2022-10-15T04:29:09.019Z,970.23
2022-10-15T04:29:40.556Z,970.33
2022-10-15T04:30:13.891Z,970.33
2022-10-15T04:30:44.689Z,970.33
2022-10-15T04:31:16.638Z,970.33
2022-10-15T04:31:48.618Z,970.33
2022-10-15T04:32:20.848Z,970.33
2022-10-15T04:32:52.509Z,970.33
2022-10-15T04:33:24.729Z,970.33
2022-10-15T04:33:56.547Z,970.23
2022-10-15T04:34:28.474Z,970.33
2022-10-15T04:35:00.756Z,970.33
2022-10-15T04:35:32.509Z,970.33
2022-10-15T04:36:04.610Z,970.33
2022-10-15T04:36:36.372Z,970.33
2022-10-15T04:36:52.467Z,970.33
2022-10-15T04:37:24.577Z,970.33
2022-10-15T04:38:08.785Z,970.13
2022-10-15T04:38:40.331Z,970.23
2022-10-15T04:39:14.511Z,970.23
2022-10-15T04:39:44.410Z,970.54
2022-10-15T04:40:17.073Z,970.54
2022-10-15T04:40:48.306Z,970.33
2022-10-15T04:41:20.421Z,970.33
2022-10-15T04:41:36.434Z,970.23
2022-10-15T04:42:20.362Z,970.23
2022-10-15T04:42:52.247Z,970.33
2022-10-15T04:43:29.076Z,970.33
2022-10-15T04:43:56.081Z,970.23
2022-10-15T04:44:28.025Z,970.44
2022-10-15T04:45:00.188Z,970.44
2022-10-15T04:45:37.094Z,970.44
2022-10-15T04:46:04.420Z,970.44
2022-10-15T04:46:36.133Z,970.54
2022-10-15T04:47:08.084Z,970.54
2022-10-15T04:47:40.055Z,970.44
2022-10-15T04:48:12.157Z,970.44
2022-10-15T04:48:43.920Z,970.44
2022-10-15T04:49:15.968Z,970.44
2022-10-15T04:49:47.852Z,970.33
2022-10-15T04:50:20.226Z,970.33
2022-10-15T04:50:51.997Z,970.44
2022-10-15T04:51:23.939Z,970.44
2022-10-15T04:51:55.636Z,970.54
2022-10-15T04:52:27.767Z,970.44
2022-10-15T04:52:59.828Z,970.44
2022-10-15T04:53:31.700Z,970.44
2022-10-15T04:54:03.970Z,970.44
2022-10-15T04:54:35.663Z,970.74
2022-10-15T04:55:07.927Z,970.74
2022-10-15T04:55:39.946Z,970.44
2022-10-15T04:56:11.709Z,970.44
2022-10-15T04:56:43.500Z,970.44
2022-10-15T04:57:15.515Z,970.44
2022-10-15T04:57:47.588Z,970.54
2022-10-15T04:58:26.616Z,970.54
2022-10-15T04:58:40.738Z,970.64
2022-10-15T04:59:19.434Z,970.64
2022-10-15T04:59:53.963Z,970.44
2022-10-15T05:00:28.826Z,970.44
2022-10-15T05:00:55.322Z,970.64
2022-10-15T05:01:27.311Z,970.54
2022-10-15T05:01:59.477Z,970.54
2022-10-15T05:02:31.445Z,970.64
2022-10-15T05:03:03.850Z,970.64
2022-10-15T05:03:19.547Z,970.64
2022-10-15T05:03:51.571Z,970.54
2022-10-15T05:04:35.338Z,970.54
2022-10-15T05:05:07.444Z,970.54
2022-10-15T05:05:39.348Z,970.33
2022-10-15T05:06:11.452Z,970.33
2022-10-15T05:06:43.147Z,970.54
2022-10-15T05:07:15.217Z,970.54
2022-10-15T05:07:46.860Z,970.54
2022-10-15T05:08:19.154Z,970.54
2022-10-15T05:08:51.345Z,970.64
2022-10-15T05:09:23.023Z,970.64
2022-10-15T05:09:54.981Z,970.54
2022-10-15T05:10:31.188Z,970.54
2022-10-15T05:10:58.969Z,970.54
2022-10-15T05:11:31.041Z,970.44
2022-10-15T05:12:03.211Z,970.44
2022-10-15T05:12:34.936Z,970.64
2022-10-15T05:12:54.175Z,970.64
2022-10-15T05:13:22.782Z,970.64
2022-10-15T05:14:06.948Z,970.54
2022-10-15T05:14:39.002Z,970.54
2022-10-15T05:15:11.972Z,970.54
2022-10-15T05:15:42.802Z,970.44
2022-10-15T05:16:14.850Z,970.44
2022-10-15T05:16:46.535Z,970.81
2022-10-15T05:17:03.585Z,970.81
2022-10-15T05:17:34.745Z,970.74
2022-10-15T05:17:50.885Z,970.74
2022-10-15T05:18:22.625Z,970.74
2022-10-15T05:18:54.726Z,970.64
2022-10-15T05:19:26.736Z,970.64
2022-10-15T05:19:58.592Z,970.64
2022-10-15T05:20:30.914Z,970.64
2022-10-15T05:21:02.986Z,970.64
2022-10-15T05:21:34.653Z,971.01
2022-10-15T05:21:50.758Z,971.01
2022-10-15T05:22:34.546Z,970.81
2022-10-15T05:23:06.641Z,970.81
2022-10-15T05:23:38.493Z,970.64
2022-10-15T05:24:10.475Z,970.64
2022-10-15T05:24:42.501Z,970.81
2022-10-15T05:25:14.687Z,970.81
2022-10-15T05:25:50.395Z,970.74
2022-10-15T05:26:18.462Z,970.74
2022-10-15T05:26:50.361Z,970.74
2022-10-15T05:27:22.280Z,970.74
2022-10-15T05:27:54.264Z,970.91
2022-10-15T05:28:26.281Z,970.81
2022-10-15T05:28:58.535Z,970.81
2022-10-15T05:29:30.366Z,970.91
2022-10-15T05:30:05.126Z,970.91
2022-10-15T05:30:34.303Z,970.81
2022-10-15T05:30:50.589Z,970.81
2022-10-15T05:31:22.196Z,970.81
2022-10-15T05:32:06.361Z,971.01
2022-10-15T05:32:37.904Z,970.81
2022-10-15T05:33:10.194Z,970.81
2022-10-15T05:33:42.110Z,971.01
2022-10-15T05:34:13.996Z,971.01
2022-10-15T05:34:45.859Z,971.11
2022-10-15T05:35:18.247Z,971.11
2022-10-15T05:35:34.152Z,970.64
2022-10-15T05:36:18.016Z,970.64
2022-10-15T05:36:50.024Z,970.81
2022-10-15T05:37:22.257Z,970.81
2022-10-15T05:37:53.868Z,970.74
2022-10-15T05:38:25.835Z,970.74
2022-10-15T05:38:57.905Z,970.91
2022-10-15T05:39:29.889Z,971.01
2022-10-15T05:40:02.671Z,971.01
2022-10-15T05:40:33.818Z,970.91
2022-10-15T05:41:05.993Z,970.91
2022-10-15T05:41:37.552Z,970.91
2022-10-15T05:42:09.818Z,970.91
2022-10-15T05:42:41.854Z,970.91
2022-10-15T05:43:13.600Z,970.91
2022-10-15T05:43:45.653Z,971.01
2022-10-15T05:44:17.481Z,971.01
2022-10-15T05:44:49.738Z,971.01
2022-10-15T05:45:22.124Z,971.01
2022-10-15T05:45:53.424Z,970.91
2022-10-15T05:46:25.480Z,970.91
2022-10-15T05:46:57.568Z,970.91
2022-10-15T05:47:29.303Z,971.01
2022-10-15T05:48:01.544Z,971.01
2022-10-15T05:48:33.513Z,971.11
2022-10-15T05:49:05.744Z,971.11
2022-10-15T05:49:37.501Z,970.91
2022-10-15T05:50:11.746Z,970.91
2022-10-15T05:50:41.580Z,971.01
2022-10-15T05:51:13.532Z,971.01
2022-10-15T05:51:45.486Z,971.01
2022-10-15T05:52:17.286Z,971.01
2022-10-15T05:52:33.630Z,971.11
2022-10-15T05:53:17.473Z,971.11
2022-10-15T05:53:49.589Z,971.11
2022-10-15T05:54:21.578Z,971.11
2022-10-15T05:54:53.214Z,971.21
2022-10-15T05:55:25.552Z,971.21
2022-10-15T05:55:57.296Z,971.11
2022-10-15T05:56:29.105Z,971.11
2022-10-15T05:57:01.480Z,971.11
2022-10-15T05:57:33.052Z,971.01
2022-10-15T05:58:05.241Z,971.01
2022-10-15T05:58:37.603Z,971.01
2022-10-15T05:59:09.091Z,971.01
2022-10-15T05:59:41.002Z,971.11
2022-10-15T06:00:14.191Z,971.11
2022-10-15T06:00:45.203Z,971.11
2022-10-15T06:01:16.884Z,971.11
2022-10-15T06:01:33.220Z,971.01
2022-10-15T06:02:05.194Z,971.01
2022-10-15T06:02:21.611Z,971.01
2022-10-15T06:03:24.964Z,971.32
2022-10-15T06:03:56.974Z,971.11
2022-10-15T06:04:31.783Z,971.21
2022-10-15T06:05:01.485Z,971.21
2022-10-15T06:05:32.845Z,971.32
2022-10-15T06:05:49.221Z,971.32
2022-10-15T06:06:21.076Z,971.32
2022-10-15T06:07:05.432Z,971.21
2022-10-15T06:07:36.819Z,971.32
2022-10-15T06:08:08.815Z,971.32
2022-10-15T06:08:40.785Z,971.21
2022-10-15T06:09:12.864Z,971.21
2022-10-15T06:09:44.823Z,971.21
2022-10-15T06:10:17.034Z,971.21
2022-10-15T06:10:48.828Z,971.11
2022-10-15T06:11:08.470Z,971.11
2022-10-15T06:11:36.648Z,971.21
2022-10-15T06:12:20.898Z,971.21
2022-10-15T06:12:52.576Z,971.21
2022-10-15T06:13:56.488Z,971.11
2022-10-15T06:14:28.560Z,971.21
2022-10-15T06:15:01.670Z,971.21
2022-10-15T06:15:32.491Z,971.32
2022-10-15T06:16:05.018Z,971.32
2022-10-15T06:16:36.633Z,971.52
2022-10-15T06:17:08.298Z,971.52
2022-10-15T06:17:40.534Z,971.21
2022-10-15T06:18:12.516Z,971.21
2022-10-15T06:18:44.455Z,971.21
2022-10-15T06:19:16.239Z,971.21
2022-10-15T06:19:32.332Z,971.21
2022-10-15T06:20:04.873Z,971.21
2022-10-15T06:20:20.286Z,971.21
2022-10-15T06:20:52.706Z,971.42
2022-10-15T06:21:29.168Z,971.42
2022-10-15T06:21:56.128Z,971.52
2022-10-15T06:22:28.187Z,971.62
2022-10-15T06:23:00.265Z,971.62
2022-10-15T06:23:32.112Z,971.21
2022-10-15T06:24:06.383Z,971.21
2022-10-15T06:24:36.140Z,971.42
2022-10-15T06:25:08.284Z,971.42
2022-10-15T06:25:40.129Z,971.32
2022-10-15T06:26:12.065Z,971.32
2022-10-15T06:26:44.112Z,971.52
2022-10-15T06:27:15.830Z,971.52
2022-10-15T06:27:47.981Z,971.42
2022-10-15T06:28:20.164Z,971.42
2022-10-15T06:28:52.301Z,971.42
2022-10-15T06:29:23.760Z,971.42
2022-10-15T06:29:55.849Z,971.42
2022-10-15T06:30:38.420Z,971.21
2022-10-15T06:30:59.831Z,971.21
2022-10-15T06:31:32.041Z,971.42
2022-10-15T06:31:47.736Z,971.42
2022-10-15T06:32:31.799Z,971.42